Queen Elizabeth — ZCEF2 — position and weather

sailwx.info

Track history (hours):
 
Tides and Currents Weather Stations Pressure Air Temp Water Temp Dewpoint Dewpoint Depression Visibility Wind Speed Wind Dir Waves Ship Positions

Queen Elizabeth

Last reported at 2018-May-23 21:00 UTC. Time now 2018-May-23 22:35 UTC.
Position N 50°58' E 001°17'.

Length 294 m; draft 8 m.

Type: Passenger vessel. MMSI: 310625000.

Date/timePositionNaut miles runAvg speedWind from/ knotsBaromVisibWave heightAir tempDewpointWater temp
2018-May-23 21:00N 50°58' E 001°17'917.5
2018-May-23 20:30N 51°04' E 001°27'917.4
2018-May-23 20:01N 51°09' E 001°38'917.2
2018-May-23 19:30N 51°15' E 001°48'917.8
2018-May-23 19:00N 51°23' E 001°54'918.3
2018-May-23 18:30N 51°30' E 002°04'1018.6
2018-May-23 17:59N 51°37' E 002°15'919.1
2018-May-23 17:30N 51°44' E 002°25'1019.5
2018-May-23 16:59N 51°52' E 002°34'1020.1
2018-May-23 16:30N 52°02' E 002°36'1020.1
2018-May-23 16:00N 52°12' E 002°39'1020.5
2018-May-23 15:30N 52°21' E 002°46'1120.4
2018-May-23 14:57N 52°31' E 002°54'1020.1
2018-May-23 14:27N 52°40' E 003°02'919.8
2018-May-23 14:00N 52°48' E 003°09'1019.4
2018-May-23 13:30N 52°56' E 003°16'1019.0
2018-May-23 13:00N 53°05' E 003°21'918.6
2018-May-23 12:30N 53°14' E 003°26'918.3
2018-May-23 12:01N 53°23' E 003°30'918.3
2018-May-23 11:30N 53°32' E 003°34'918.3
2018-May-23 11:00N 53°40' E 003°39'917.9
2018-May-23 10:30N 53°47' E 003°49'1018.8
2018-May-23 10:00N 53°53' E 004°02'919.1
2018-May-23 09:30N 53°58' E 004°15'1019.2
2018-May-23 09:00N 54°04' E 004°28'1019.8
2018-May-23 08:30N 54°13' E 004°36'1120.0
2018-May-23 07:58N 54°22' E 004°46'2919.8
2018-May-23 06:29N 54°47' E 005°13'1319.7
2018-May-23 05:49N 54°57' E 005°26'719.7
2018-May-23 05:28N 55°03' E 005°33'1219.7
2018-May-23 04:50N 55°13' E 005°45'719.7
2018-May-23 04:30N 55°19' E 005°51'1019.8
2018-May-23 04:00N 55°27' E 006°01'1019.8
2018-May-23 03:30N 55°35' E 006°10'1019.8
2018-May-23 03:00N 55°44' E 006°19'1019.8
2018-May-23 02:30N 55°52' E 006°29'1019.7
2018-May-23 02:00N 56°01' E 006°38'1019.6
2018-May-23 01:30N 56°09' E 006°48'1019.4
2018-May-23 01:00N 56°17' E 006°57'1019.2
2018-May-23 00:30N 56°25' E 007°06'1018.9
2018-May-23 00:00N 56°33' E 007°16'918.8
2018-May-22 23:30N 56°41' E 007°25'1218.7
2018-May-22 22:53N 56°51' E 007°36'718.6
2018-May-22 22:30N 56°57' E 007°43'5417.9
2018-May-22 19:30N 57°32' E 008°58'918.4
2018-May-22 19:00N 57°37' E 009°12'918.6
2018-May-22 18:30N 57°43' E 009°26'918.6
2018-May-22 18:00N 57°48' E 009°41'1019.1
2018-May-22 17:30N 57°49' E 009°59'918.8
2018-May-22 17:00N 57°50' E 010°16'918.5
2018-May-22 16:30N 57°50' E 010°34'816.0
2018-May-22 16:00N 57°46' E 010°47'612.5
2018-May-22 15:30N 57°43' E 010°38'1 3.0
2018-May-22 15:00N 57°43' E 010°35'0 0.0
2018-May-22 14:29N 57°43' E 010°35'0 0.0
2018-May-22 13:50N 57°43' E 010°35'0 0.0
2018-May-22 13:29N 57°43' E 010°35'0 0.0
2018-May-22 12:59N 57°43' E 010°35'0 0.0
2018-May-22 12:29N 57°43' E 010°35'0 0.0
2018-May-22 11:53N 57°43' E 010°35'0 0.0
2018-May-22 11:26N 57°43' E 010°35'0 0.0
2018-May-22 10:50N 57°43' E 010°35'0 0.0
2018-May-22 10:23N 57°43' E 010°35'0 0.0
2018-May-22 09:53N 57°43' E 010°35'0 0.0
2018-May-22 09:26N 57°43' E 010°35'0 0.0
2018-May-22 08:59N 57°43' E 010°35'0 0.0
2018-May-22 08:26N 57°43' E 010°35'0 0.0
2018-May-22 07:59N 57°43' E 010°35'0 0.0
2018-May-22 07:29N 57°43' E 010°35'0 0.0
2018-May-22 06:59N 57°43' E 010°35'0 0.2
2018-May-22 06:30N 57°43' E 010°35'4 7.3
2018-May-22 06:01N 57°42' E 010°42'7418.3
2018-May-22 06:00N 57°36' E 010°48'612.1 070 / 71020.810.8 16.010.316.0
2018-May-22 05:30N 57°40' E 010°56'917.2
2018-May-22 05:01N 57°36' E 011°11'917.0
2018-May-22 04:30N 57°30' E 011°22'917.1
2018-May-22 04:00N 57°23' E 011°31'918.7
2018-May-22 03:30N 57°14' E 011°36'918.8
2018-May-22 03:00N 57°05' E 011°41'918.5
2018-May-22 02:31N 56°57' E 011°47'918.3
2018-May-22 02:00N 56°48' E 011°53'917.0
2018-May-22 01:30N 56°40' E 011°48'6917.4
2018-May-21 21:32N 55°39' E 010°47'1019.7
2018-May-21 21:01N 55°30' E 010°54'218.9
2018-May-21 20:55N 55°28' E 010°56'819.1
2018-May-21 20:28N 55°21' E 011°02'919.6
2018-May-21 20:01N 55°12' E 011°05'1020.1
2018-May-21 19:30N 55°02' E 011°01'918.0
2018-May-21 19:00N 54°54' E 010°54'918.0
2018-May-21 18:30N 54°45' E 010°52'612.0
2018-May-21 18:00N 54°39' E 010°49'816.0
2018-May-21 17:30N 54°35' E 010°38'816.6
2018-May-21 17:00N 54°31' E 010°25'611.5
2018-May-21 16:29N 54°28' E 010°16'511.2
2018-May-21 16:00N 54°23' E 010°12'4 0.5
2018-May-21 07:18N 54°20' E 010°09'0 0.0
2018-May-21 06:59N 54°20' E 010°09'0 0.0
2018-May-21 06:30N 54°20' E 010°09'1 1.2
2018-May-21 05:56N 54°20' E 010°10'4 9.0
2018-May-21 05:30N 54°24' E 010°12'613.0
2018-May-21 05:00N 54°30' E 010°17'713.9
2018-May-21 04:30N 54°32' E 010°28'816.7
2018-May-21 04:00N 54°35' E 010°42'917.4
2018-May-21 03:30N 54°35' E 010°56'918.4
2018-May-21 03:00N 54°36' E 011°12'1121.4
2018-May-21 02:30N 54°31' E 011°29'1121.2
2018-May-21 02:00N 54°26' E 011°45'1021.0
2018-May-21 01:30N 54°26' E 012°03'917.4
2018-May-21 01:00N 54°32' E 012°13'1020.0
2018-May-21 00:30N 54°40' E 012°23'1020.6
2018-May-21 00:00N 54°46' E 012°38'1020.6
2018-May-20 23:30N 54°50' E 012°55'1121.7
2018-May-20 23:00N 54°53' E 013°12'1122.2
2018-May-20 22:30N 54°58' E 013°30'1122.1
2018-May-20 22:00N 55°02' E 013°48'1121.7
2018-May-20 21:30N 55°06' E 014°05'1121.9
2018-May-20 21:00N 55°15' E 014°18'1121.9
2018-May-20 20:30N 55°23' E 014°31'1121.6
2018-May-20 20:00N 55°29' E 014°46'1121.8
2018-May-20 19:30N 55°34' E 015°03'1121.6
2018-May-20 19:00N 55°39' E 015°20'1121.6
2018-May-20 18:30N 55°45' E 015°36'1121.7
2018-May-20 18:00N 55°50' E 015°53'1121.4
2018-May-20 17:30N 55°56' E 016°09'1121.1
2018-May-20 17:00N 56°01' E 016°26'1019.6
2018-May-20 16:30N 56°06' E 016°41'1121.3
2018-May-20 16:00N 56°12' E 016°56'1121.3
2018-May-20 15:30N 56°19' E 017°11'1121.3
2018-May-20 15:00N 56°26' E 017°26'17621.5
2018-May-20 06:49N 58°40' E 020°57'721.5
2018-May-20 06:30N 58°46' E 021°04'1121.6
2018-May-20 06:01N 58°55' E 021°16'1121.8
2018-May-20 05:30N 59°04' E 021°28'1121.6
2018-May-20 05:00N 59°12' E 021°41'1121.6
2018-May-20 04:30N 59°19' E 021°57'1921.6
2018-May-20 03:37N 59°30' E 022°27'321.7
2018-May-20 03:30N 59°32' E 022°32'1121.8
2018-May-20 03:00N 59°35' E 022°52'1121.9
2018-May-20 02:30N 59°37' E 023°14'1121.7
2018-May-20 02:00N 59°40' E 023°34'1121.9
2018-May-20 01:30N 59°43' E 023°55'1121.9
2018-May-20 01:00N 59°46' E 024°16'1121.9
2018-May-20 00:30N 59°48' E 024°37'1121.7
2018-May-20 00:00N 59°51' E 024°58'1121.8
2018-May-19 23:30N 59°52' E 025°20'1121.6
2018-May-19 23:00N 59°54' E 025°41'1121.5
2018-May-19 22:30N 59°57' E 026°02'1121.5
2018-May-19 22:00N 59°60' E 026°23'1121.1
2018-May-19 21:30N 60°01' E 026°44'1121.2
2018-May-19 21:00N 59°60' E 027°05'1121.5
2018-May-19 20:30N 60°05' E 027°23'1121.7
2018-May-19 20:00N 60°11' E 027°42'1020.9
2018-May-19 19:30N 60°10' E 028°02'1020.9
2018-May-19 19:00N 60°06' E 028°22'1020.2
2018-May-19 18:30N 60°03' E 028°41'1020.9
2018-May-19 18:00N 60°03' E 029°02'1020.2
2018-May-19 17:30N 60°02' E 029°22'612.2
2018-May-19 17:00N 60°01' E 029°35'611.3
2018-May-19 16:30N 59°59' E 029°45'510.1
2018-May-19 16:01N 59°57' E 029°54'510.3
2018-May-19 15:30N 59°56' E 030°04'3 6.6
2018-May-19 14:58N 59°57' E 030°11'0 0.0
2018-May-19 14:30N 59°57' E 030°11'0 0.0
2018-May-19 13:57N 59°57' E 030°11'0 0.0
2018-May-19 13:30N 59°57' E 030°11'0 0.0
2018-May-19 13:00N 59°57' E 030°11'0 0.0
2018-May-19 12:30N 59°57' E 030°11'0 0.0
2018-May-19 12:00N 59°57' E 030°11'0 0.0
2018-May-19 11:30N 59°57' E 030°11'0 0.0
2018-May-19 11:00N 59°57' E 030°11'0 0.0
2018-May-19 10:30N 59°57' E 030°11'0 0.0
2018-May-19 10:00N 59°57' E 030°11'0 0.0
2018-May-19 09:24N 59°57' E 030°11'0 0.0
2018-May-19 09:00N 59°57' E 030°11'0 0.0
2018-May-19 08:27N 59°57' E 030°11'0 0.0
2018-May-19 07:57N 59°57' E 030°11'0 0.0
2018-May-19 07:30N 59°57' E 030°11'0 0.0
2018-May-19 07:00N 59°57' E 030°11'0 0.0
2018-May-19 06:30N 59°57' E 030°11'0 0.0
2018-May-19 06:00N 59°57' E 030°11'0 0.0
2018-May-19 05:30N 59°57' E 030°11'0 0.0
2018-May-19 05:00N 59°57' E 030°11'0 0.0
2018-May-19 04:27N 59°57' E 030°11'0 0.0
2018-May-19 04:00N 59°57' E 030°11'0 0.0
2018-May-19 03:30N 59°57' E 030°11'0 0.0
2018-May-19 03:00N 59°57' E 030°11'0 0.0
2018-May-19 02:18N 59°57' E 030°11'0 0.0
2018-May-19 02:00N 59°57' E 030°11'0 0.0
2018-May-19 01:30N 59°57' E 030°11'0 0.0
2018-May-19 01:00N 59°57' E 030°11'0 0.0
2018-May-19 00:30N 59°57' E 030°11'0 0.0
2018-May-19 00:00N 59°57' E 030°11'0 0.0
2018-May-18 23:30N 59°57' E 030°11'0 0.0
2018-May-18 23:00N 59°57' E 030°11'0 0.0
2018-May-18 22:30N 59°57' E 030°11'0 0.0
2018-May-18 22:00N 59°57' E 030°11'0 0.0
2018-May-18 21:30N 59°57' E 030°11'0 0.0
2018-May-18 21:00N 59°57' E 030°11'0 0.0
2018-May-18 20:30N 59°57' E 030°11'0 0.0
2018-May-18 20:00N 59°57' E 030°11'0 0.0
2018-May-18 19:30N 59°57' E 030°11'0 0.0
2018-May-18 19:00N 59°57' E 030°11'0 0.0
2018-May-18 18:30N 59°57' E 030°11'0 0.0
2018-May-18 18:00N 59°57' E 030°11'0 0.0
2018-May-18 17:30N 59°57' E 030°11'0 0.0
2018-May-18 17:00N 59°57' E 030°11'0 0.0
2018-May-18 16:30N 59°57' E 030°11'0 0.0
2018-May-18 16:00N 59°57' E 030°11'0 0.0
2018-May-18 15:30N 59°57' E 030°11'0 0.0
2018-May-18 15:00N 59°57' E 030°11'0 0.0
2018-May-18 14:30N 59°57' E 030°11'0 0.0
2018-May-18 14:00N 59°57' E 030°11'0 0.0
2018-May-18 13:30N 59°57' E 030°11'0 0.0
2018-May-18 13:00N 59°57' E 030°11'0 0.0
2018-May-18 12:30N 59°57' E 030°11'0 0.0
2018-May-18 12:00N 59°57' E 030°11'0 0.0
2018-May-18 11:30N 59°57' E 030°11'0 0.0
2018-May-18 11:00N 59°57' E 030°11'0 0.0
2018-May-18 10:30N 59°57' E 030°11'0 0.0
2018-May-18 10:00N 59°57' E 030°11'0 0.0
2018-May-18 09:30N 59°57' E 030°11'0 0.0
2018-May-18 09:00N 59°57' E 030°11'0 0.0
2018-May-18 08:30N 59°57' E 030°11'0 0.0
2018-May-18 07:54N 59°57' E 030°11'0 0.0
2018-May-18 07:30N 59°57' E 030°11'0 0.0
2018-May-18 07:00N 59°57' E 030°11'0 0.0
2018-May-18 06:30N 59°57' E 030°11'0 0.0
2018-May-18 06:00N 59°57' E 030°11'0 0.0
2018-May-18 05:27N 59°57' E 030°11'0 0.0
2018-May-18 05:00N 59°57' E 030°11'0 0.0
2018-May-18 04:30N 59°57' E 030°11'0 0.0
2018-May-18 04:00N 59°57' E 030°11'2 3.3
2018-May-18 03:30N 59°57' E 030°08'510.1
2018-May-18 03:00N 59°56' E 029°58'510.8
2018-May-18 02:30N 59°58' E 029°48'4 7.8
2018-May-18 02:00N 59°60' E 029°41'611.7
2018-May-18 01:30N 60°01' E 029°30'510.0
2018-May-18 01:00N 60°01' E 029°20'815.3
2018-May-18 00:31N 60°02' E 029°05'815.7
2018-May-18 00:00N 60°02' E 028°49'815.9
2018-May-17 23:30N 60°02' E 028°33'815.5
2018-May-17 23:00N 60°06' E 028°19'815.6
2018-May-17 22:30N 60°09' E 028°05'815.8
2018-May-17 22:00N 60°11' E 027°49'815.2
2018-May-17 21:30N 60°08' E 027°35'816.2
2018-May-17 20:59N 60°03' E 027°21'816.6
2018-May-17 20:29N 59°59' E 027°07'815.8
2018-May-17 20:00N 59°59' E 026°52'815.8
2018-May-17 19:30N 59°59' E 026°36'816.4
2018-May-17 19:00N 59°57' E 026°20'816.3
2018-May-17 18:30N 59°55' E 026°04'816.3
2018-May-17 18:00N 59°52' E 025°49'817.0
2018-May-17 17:30N 59°51' E 025°32'917.3
2018-May-17 17:00N 59°49' E 025°15'816.9
2018-May-17 16:30N 59°47' E 024°59'817.0
2018-May-17 16:00N 59°41' E 024°47'714.2
2018-May-17 15:30N 59°34' E 024°42'713.8
2018-May-17 15:00N 59°28' E 024°46'1 1.3
2018-May-17 14:26N 59°27' E 024°46'0 0.0
2018-May-17 13:59N 59°27' E 024°46'0 0.0
2018-May-17 13:29N 59°27' E 024°46'0 0.0
2018-May-17 12:59N 59°27' E 024°46'0 0.0
2018-May-17 12:29N 59°27' E 024°46'0 0.0
2018-May-17 11:58N 59°27' E 024°46'0 0.0
2018-May-17 11:29N 59°27' E 024°46'0 0.0
2018-May-17 11:00N 59°27' E 024°46'0 0.0
2018-May-17 10:29N 59°27' E 024°46'0 0.0
2018-May-17 09:59N 59°27' E 024°46'0 0.0
2018-May-17 09:29N 59°27' E 024°46'0 0.0
2018-May-17 09:00N 59°27' E 024°46'0 0.0
2018-May-17 08:29N 59°27' E 024°46'0 0.0
2018-May-17 07:56N 59°27' E 024°46'0 0.0
2018-May-17 07:29N 59°27' E 024°46'0 0.0
2018-May-17 06:59N 59°27' E 024°46'0 0.0
2018-May-17 06:29N 59°27' E 024°46'0 0.0
2018-May-17 05:59N 59°27' E 024°46'0 0.0
2018-May-17 05:29N 59°27' E 024°46'1 1.9
2018-May-17 05:00N 59°28' E 024°46'5 9.6
2018-May-17 04:30N 59°30' E 024°38'816.0
2018-May-17 04:01N 59°30' E 024°22'1020.1
2018-May-17 03:31N 59°29' E 024°02'1020.4
2018-May-17 03:01N 59°28' E 023°42'1020.3
2018-May-17 02:30N 59°27' E 023°22'1020.4
2018-May-17 02:01N 59°26' E 023°02'1020.3
2018-May-17 01:31N 59°26' E 022°42'712.7
2018-May-17 01:00N 59°24' E 022°30'4607.7 110 / 111012.527.0 14.012.211.0
2018-May-17 00:59N 59°23' E 022°22'1020.4
2018-May-17 00:31N 59°23' E 022°03'1020.1
2018-May-17 00:01N 59°24' E 021°44'1020.2
2018-May-16 23:31N 59°24' E 021°24'1019.9
2018-May-16 23:00N 59°24' E 021°04'1020.3
2018-May-16 22:30N 59°25' E 020°44'1120.3
2018-May-16 21:58N 59°25' E 020°22'918.9
2018-May-16 21:29N 59°28' E 020°05'919.5
2018-May-16 21:01N 59°36' E 019°59'1020.2
2018-May-16 20:30N 59°44' E 019°45'918.8
2018-May-16 20:01N 59°47' E 019°28'714.4
2018-May-16 19:31N 59°45' E 019°15'917.8
2018-May-16 19:00N 59°41' E 018°59'510.5
2018-May-16 18:30N 59°38' E 018°51'612.3
2018-May-16 18:00N 59°35' E 018°40'510.0
2018-May-16 17:30N 59°32' E 018°32'510.5
2018-May-16 17:00N 59°27' E 018°26'4 8.2
2018-May-16 16:30N 59°23' E 018°27'3 6.4
2018-May-16 16:00N 59°22' E 018°21'611.7
2018-May-16 15:30N 59°20' E 018°11'2 4.9
2018-May-16 15:00N 59°19' E 018°06'0 0.0
2018-May-16 14:28N 59°19' E 018°06'0 0.0
2018-May-16 13:58N 59°19' E 018°06'0 0.0
2018-May-16 13:28N 59°19' E 018°06'0 0.0
2018-May-16 12:58N 59°19' E 018°06'0 0.0
2018-May-16 12:28N 59°19' E 018°06'0 0.0
2018-May-16 11:58N 59°19' E 018°06'0 0.0
2018-May-16 11:28N 59°19' E 018°06'0 0.0
2018-May-16 10:58N 59°19' E 018°06'0 0.0
2018-May-16 10:28N 59°19' E 018°06'0 0.0
2018-May-16 09:58N 59°19' E 018°06'0 0.0
2018-May-16 09:28N 59°19' E 018°06'0 0.0
2018-May-16 08:58N 59°19' E 018°06'0 0.0
2018-May-16 08:28N 59°19' E 018°06'0 0.0
2018-May-16 07:58N 59°19' E 018°06'0 0.0
2018-May-16 07:25N 59°19' E 018°06'0 0.0
2018-May-16 07:00N 59°19' E 018°06'0 0.1
2018-May-16 06:30N 59°19' E 018°06'3 6.0
2018-May-16 06:00N 59°20' E 018°12'611.1
2018-May-16 05:30N 59°22' E 018°21'3 5.9
2018-May-16 05:00N 59°23' E 018°27'4 7.8
2018-May-16 04:30N 59°27' E 018°26'510.7
2018-May-16 04:00N 59°32' E 018°32'510.3
2018-May-16 03:30N 59°34' E 018°40'612.0
2018-May-16 03:00N 59°37' E 018°50'5 9.3
2018-May-16 02:30N 59°40' E 018°58'816.4
2018-May-16 02:00N 59°44' E 019°12'815.2
2018-May-16 01:30N 59°47' E 019°26'816.9
2018-May-16 01:00N 59°48' E 019°43'917.2
2018-May-16 00:30N 59°42' E 019°55'918.6
2018-May-16 00:00N 59°35' E 020°08'917.6
2018-May-15 23:28N 59°26' E 020°05'920.3
2018-May-15 23:00N 59°18' E 019°55'1020.5
2018-May-15 22:30N 59°09' E 019°45'1020.4
2018-May-15 22:00N 59°01' E 019°34'1020.7
2018-May-15 21:30N 58°52' E 019°24'1020.7
2018-May-15 21:00N 58°43' E 019°13'19319.9
2018-May-15 11:19N 55°54' E 016°22'620.0
2018-May-15 11:00N 55°51' E 016°13'1020.1
2018-May-15 10:30N 55°46' E 015°57'1020.0
2018-May-15 10:00N 55°41' E 015°42'1020.3
2018-May-15 09:30N 55°36' E 015°26'1020.5
2018-May-15 09:00N 55°32' E 015°10'1020.3
2018-May-15 08:30N 55°27' E 014°54'1020.5
2018-May-15 08:00N 55°22' E 014°38'1020.3
2018-May-15 07:30N 55°14' E 014°26'1020.0
2018-May-15 07:00N 55°07' E 014°15'1019.5
2018-May-15 06:30N 55°01' E 014°02'1020.3
2018-May-15 06:00N 54°57' E 013°45'1020.1
2018-May-15 05:30N 54°54' E 013°29'1020.1
2018-May-15 05:00N 54°50' E 013°13'1019.5
2018-May-15 04:30N 54°47' E 012°57'918.9
2018-May-15 04:00N 54°44' E 012°41'918.8
2018-May-15 03:30N 54°39' E 012°28'918.5
2018-May-15 03:01N 54°32' E 012°17'917.7
2018-May-15 02:30N 54°25' E 012°08'919.0
2018-May-15 02:00N 54°25' E 011°52'918.8
2018-May-15 01:30N 54°28' E 011°37'1019.4
2018-May-15 01:00N 54°32' E 011°22'919.0
2018-May-15 00:30N 54°36' E 011°07'918.5
2018-May-15 00:00N 54°41' E 010°53'713.8
2018-May-14 23:31N 54°48' E 010°52'816.6
2018-May-14 23:01N 54°56' E 010°55'917.9
2018-May-14 22:30N 55°04' E 011°02'714.1
2018-May-14 22:00N 55°11' E 011°03'5 9.6
2018-May-14 21:30N 55°15' E 011°05'714.0
2018-May-14 21:00N 55°22' E 011°02'3816.4
2018-May-14 18:41N 56°00' E 011°04'419.1
2018-May-14 18:28N 56°04' E 011°07'917.4
2018-May-14 17:57N 56°08' E 011°21'919.9
2018-May-14 17:29N 56°08' E 011°38'919.7
2018-May-14 17:01N 56°10' E 011°54'8467.5
2018-May-14 17:00N 56°06' E 011°42'1736.2 040 / 151019.210.8 19.013.815.0
2018-May-14 16:30N 56°12' E 012°11'918.5
2018-May-14 16:00N 56°09' E 012°27'919.0
2018-May-14 15:31N 56°03' E 012°39'815.9
2018-May-14 15:01N 55°55' E 012°39'816.2
2018-May-14 14:31N 55°47' E 012°43'510.8
2018-May-14 14:00N 55°43' E 012°37'0 0.1
2018-May-14 13:30N 55°43' E 012°37'0 0.0
2018-May-14 13:00N 55°43' E 012°37'0 0.0
2018-May-14 12:30N 55°43' E 012°37'0 0.0
2018-May-14 12:00N 55°43' E 012°37'0 0.0
2018-May-14 11:30N 55°43' E 012°37'0 0.0
2018-May-14 11:00N 55°43' E 012°37'0 0.0
2018-May-14 10:30N 55°43' E 012°37'0 0.0
2018-May-14 10:00N 55°43' E 012°37'0 0.0
2018-May-14 09:30N 55°43' E 012°37'0 0.0
2018-May-14 09:00N 55°43' E 012°37'0 0.0
2018-May-14 08:30N 55°43' E 012°37'0 0.0
2018-May-14 08:00N 55°43' E 012°37'0 0.0
2018-May-14 07:30N 55°43' E 012°37'0 0.0
2018-May-14 07:00N 55°43' E 012°37'0 0.0
2018-May-14 06:30N 55°43' E 012°37'0 0.0
2018-May-14 06:00N 55°43' E 012°37'0 0.0
2018-May-14 05:30N 55°43' E 012°37'0 0.0
2018-May-14 05:00N 55°43' E 012°37'0 0.7
2018-May-14 04:30N 55°43' E 012°38'4 9.0
2018-May-14 04:00N 55°47' E 012°41'714.8
2018-May-14 03:31N 55°54' E 012°39'816.0
2018-May-14 03:01N 56°02' E 012°39'914.4
2018-May-14 02:23N 56°08' E 012°27'613.8
2018-May-14 01:58N 56°12' E 012°19'3315.5
2018-May-13 23:50N 56°41' E 011°53'616.9
2018-May-13 23:30N 56°47' E 011°50'816.8
2018-May-13 23:00N 56°55' E 011°45'816.5
2018-May-13 22:30N 57°02' E 011°40'816.3
2018-May-13 22:00N 57°10' E 011°35'816.2
2018-May-13 21:30N 57°18' E 011°30'816.6
2018-May-13 21:00N 57°26' E 011°25'  
Track history (hours):
 
Tides and Currents Weather Stations Pressure Air Temp Water Temp Dewpoint Dewpoint Depression Visibility Wind Speed Wind Dir Waves Ship Positions

Queen Elizabeth

Last reported at 2018-May-23 21:00 UTC. Time now 2018-May-23 22:35 UTC.
Position N 50°58' E 001°17'.

Length 294 m; draft 8 m.

Type: Passenger vessel. MMSI: 310625000.

Date/timePositionNaut miles runAvg speedWind from/ knotsBaromVisibWave heightAir tempDewpointWater temp
2018-May-23 21:00N 50°58' E 001°17'917.5
2018-May-23 20:30N 51°04' E 001°27'917.4
2018-May-23 20:01N 51°09' E 001°38'917.2
2018-May-23 19:30N 51°15' E 001°48'917.8
2018-May-23 19:00N 51°23' E 001°54'918.3
2018-May-23 18:30N 51°30' E 002°04'1018.6
2018-May-23 17:59N 51°37' E 002°15'919.1
2018-May-23 17:30N 51°44' E 002°25'1019.5
2018-May-23 16:59N 51°52' E 002°34'1020.1
2018-May-23 16:30N 52°02' E 002°36'1020.1
2018-May-23 16:00N 52°12' E 002°39'1020.5
2018-May-23 15:30N 52°21' E 002°46'1120.4
2018-May-23 14:57N 52°31' E 002°54'1020.1
2018-May-23 14:27N 52°40' E 003°02'919.8
2018-May-23 14:00N 52°48' E 003°09'1019.4
2018-May-23 13:30N 52°56' E 003°16'1019.0
2018-May-23 13:00N 53°05' E 003°21'918.6
2018-May-23 12:30N 53°14' E 003°26'918.3
2018-May-23 12:01N 53°23' E 003°30'918.3
2018-May-23 11:30N 53°32' E 003°34'918.3
2018-May-23 11:00N 53°40' E 003°39'917.9
2018-May-23 10:30N 53°47' E 003°49'1018.8
2018-May-23 10:00N 53°53' E 004°02'919.1
2018-May-23 09:30N 53°58' E 004°15'1019.2
2018-May-23 09:00N 54°04' E 004°28'1019.8
2018-May-23 08:30N 54°13' E 004°36'1120.0
2018-May-23 07:58N 54°22' E 004°46'2919.8
2018-May-23 06:29N 54°47' E 005°13'1319.7
2018-May-23 05:49N 54°57' E 005°26'719.7
2018-May-23 05:28N 55°03' E 005°33'1219.7
2018-May-23 04:50N 55°13' E 005°45'719.7
2018-May-23 04:30N 55°19' E 005°51'1019.8
2018-May-23 04:00N 55°27' E 006°01'1019.8
2018-May-23 03:30N 55°35' E 006°10'1019.8
2018-May-23 03:00N 55°44' E 006°19'1019.8
2018-May-23 02:30N 55°52' E 006°29'1019.7
2018-May-23 02:00N 56°01' E 006°38'1019.6
2018-May-23 01:30N 56°09' E 006°48'1019.4
2018-May-23 01:00N 56°17' E 006°57'1019.2
2018-May-23 00:30N 56°25' E 007°06'1018.9
2018-May-23 00:00N 56°33' E 007°16'918.8
2018-May-22 23:30N 56°41' E 007°25'1218.7
2018-May-22 22:53N 56°51' E 007°36'718.6
2018-May-22 22:30N 56°57' E 007°43'5417.9
2018-May-22 19:30N 57°32' E 008°58'918.4
2018-May-22 19:00N 57°37' E 009°12'918.6
2018-May-22 18:30N 57°43' E 009°26'918.6
2018-May-22 18:00N 57°48' E 009°41'1019.1
2018-May-22 17:30N 57°49' E 009°59'918.8
2018-May-22 17:00N 57°50' E 010°16'918.5
2018-May-22 16:30N 57°50' E 010°34'816.0
2018-May-22 16:00N 57°46' E 010°47'612.5
2018-May-22 15:30N 57°43' E 010°38'1 3.0
2018-May-22 15:00N 57°43' E 010°35'0 0.0
2018-May-22 14:29N 57°43' E 010°35'0 0.0
2018-May-22 13:50N 57°43' E 010°35'0 0.0
2018-May-22 13:29N 57°43' E 010°35'0 0.0
2018-May-22 12:59N 57°43' E 010°35'0 0.0
2018-May-22 12:29N 57°43' E 010°35'0 0.0
2018-May-22 11:53N 57°43' E 010°35'0 0.0
2018-May-22 11:26N 57°43' E 010°35'0 0.0
2018-May-22 10:50N 57°43' E 010°35'0 0.0
2018-May-22 10:23N 57°43' E 010°35'0 0.0
2018-May-22 09:53N 57°43' E 010°35'0 0.0
2018-May-22 09:26N 57°43' E 010°35'0 0.0
2018-May-22 08:59N 57°43' E 010°35'0 0.0
2018-May-22 08:26N 57°43' E 010°35'0 0.0
2018-May-22 07:59N 57°43' E 010°35'0 0.0
2018-May-22 07:29N 57°43' E 010°35'0 0.0
2018-May-22 06:59N 57°43' E 010°35'0 0.2
2018-May-22 06:30N 57°43' E 010°35'4 7.3
2018-May-22 06:01N 57°42' E 010°42'7418.3
2018-May-22 06:00N 57°36' E 010°48'612.1 070 / 71020.810.8 16.010.316.0
2018-May-22 05:30N 57°40' E 010°56'917.2
2018-May-22 05:01N 57°36' E 011°11'917.0
2018-May-22 04:30N 57°30' E 011°22'917.1
2018-May-22 04:00N 57°23' E 011°31'918.7
2018-May-22 03:30N 57°14' E 011°36'918.8
2018-May-22 03:00N 57°05' E 011°41'918.5
2018-May-22 02:31N 56°57' E 011°47'918.3
2018-May-22 02:00N 56°48' E 011°53'917.0
2018-May-22 01:30N 56°40' E 011°48'6917.4
2018-May-21 21:32N 55°39' E 010°47'1019.7
2018-May-21 21:01N 55°30' E 010°54'218.9
2018-May-21 20:55N 55°28' E 010°56'819.1
2018-May-21 20:28N 55°21' E 011°02'919.6
2018-May-21 20:01N 55°12' E 011°05'1020.1
2018-May-21 19:30N 55°02' E 011°01'918.0
2018-May-21 19:00N 54°54' E 010°54'918.0
2018-May-21 18:30N 54°45' E 010°52'612.0
2018-May-21 18:00N 54°39' E 010°49'816.0
2018-May-21 17:30N 54°35' E 010°38'816.6
2018-May-21 17:00N 54°31' E 010°25'611.5
2018-May-21 16:29N 54°28' E 010°16'511.2
2018-May-21 16:00N 54°23' E 010°12'4 0.5
2018-May-21 07:18N 54°20' E 010°09'0 0.0
2018-May-21 06:59N 54°20' E 010°09'0 0.0
2018-May-21 06:30N 54°20' E 010°09'1 1.2
2018-May-21 05:56N 54°20' E 010°10'4 9.0
2018-May-21 05:30N 54°24' E 010°12'613.0
2018-May-21 05:00N 54°30' E 010°17'713.9
2018-May-21 04:30N 54°32' E 010°28'816.7
2018-May-21 04:00N 54°35' E 010°42'917.4
2018-May-21 03:30N 54°35' E 010°56'918.4
2018-May-21 03:00N 54°36' E 011°12'1121.4
2018-May-21 02:30N 54°31' E 011°29'1121.2
2018-May-21 02:00N 54°26' E 011°45'1021.0
2018-May-21 01:30N 54°26' E 012°03'917.4
2018-May-21 01:00N 54°32' E 012°13'1020.0
2018-May-21 00:30N 54°40' E 012°23'1020.6
2018-May-21 00:00N 54°46' E 012°38'1020.6
2018-May-20 23:30N 54°50' E 012°55'1121.7
2018-May-20 23:00N 54°53' E 013°12'1122.2
2018-May-20 22:30N 54°58' E 013°30'1122.1
2018-May-20 22:00N 55°02' E 013°48'1121.7
2018-May-20 21:30N 55°06' E 014°05'1121.9
2018-May-20 21:00N 55°15' E 014°18'1121.9
2018-May-20 20:30N 55°23' E 014°31'1121.6
2018-May-20 20:00N 55°29' E 014°46'1121.8
2018-May-20 19:30N 55°34' E 015°03'1121.6
2018-May-20 19:00N 55°39' E 015°20'1121.6
2018-May-20 18:30N 55°45' E 015°36'1121.7
2018-May-20 18:00N 55°50' E 015°53'1121.4
2018-May-20 17:30N 55°56' E 016°09'1121.1
2018-May-20 17:00N 56°01' E 016°26'1019.6
2018-May-20 16:30N 56°06' E 016°41'1121.3
2018-May-20 16:00N 56°12' E 016°56'1121.3
2018-May-20 15:30N 56°19' E 017°11'1121.3
2018-May-20 15:00N 56°26' E 017°26'17621.5
2018-May-20 06:49N 58°40' E 020°57'721.5
2018-May-20 06:30N 58°46' E 021°04'1121.6
2018-May-20 06:01N 58°55' E 021°16'1121.8
2018-May-20 05:30N 59°04' E 021°28'1121.6
2018-May-20 05:00N 59°12' E 021°41'1121.6
2018-May-20 04:30N 59°19' E 021°57'1921.6
2018-May-20 03:37N 59°30' E 022°27'321.7
2018-May-20 03:30N 59°32' E 022°32'1121.8
2018-May-20 03:00N 59°35' E 022°52'1121.9
2018-May-20 02:30N 59°37' E 023°14'1121.7
2018-May-20 02:00N 59°40' E 023°34'1121.9
2018-May-20 01:30N 59°43' E 023°55'1121.9
2018-May-20 01:00N 59°46' E 024°16'1121.9
2018-May-20 00:30N 59°48' E 024°37'1121.7
2018-May-20 00:00N 59°51' E 024°58'1121.8
2018-May-19 23:30N 59°52' E 025°20'1121.6
2018-May-19 23:00N 59°54' E 025°41'1121.5
2018-May-19 22:30N 59°57' E 026°02'1121.5
2018-May-19 22:00N 59°60' E 026°23'1121.1
2018-May-19 21:30N 60°01' E 026°44'1121.2
2018-May-19 21:00N 59°60' E 027°05'1121.5
2018-May-19 20:30N 60°05' E 027°23'1121.7
2018-May-19 20:00N 60°11' E 027°42'1020.9
2018-May-19 19:30N 60°10' E 028°02'1020.9
2018-May-19 19:00N 60°06' E 028°22'1020.2
2018-May-19 18:30N 60°03' E 028°41'1020.9
2018-May-19 18:00N 60°03' E 029°02'1020.2
2018-May-19 17:30N 60°02' E 029°22'612.2
2018-May-19 17:00N 60°01' E 029°35'611.3
2018-May-19 16:30N 59°59' E 029°45'510.1
2018-May-19 16:01N 59°57' E 029°54'510.3
2018-May-19 15:30N 59°56' E 030°04'3 6.6
2018-May-19 14:58N 59°57' E 030°11'0 0.0
2018-May-19 14:30N 59°57' E 030°11'0 0.0
2018-May-19 13:57N 59°57' E 030°11'0 0.0
2018-May-19 13:30N 59°57' E 030°11'0 0.0
2018-May-19 13:00N 59°57' E 030°11'0 0.0
2018-May-19 12:30N 59°57' E 030°11'0 0.0
2018-May-19 12:00N 59°57' E 030°11'0 0.0
2018-May-19 11:30N 59°57' E 030°11'0 0.0
2018-May-19 11:00N 59°57' E 030°11'0 0.0
2018-May-19 10:30N 59°57' E 030°11'0 0.0
2018-May-19 10:00N 59°57' E 030°11'0 0.0
2018-May-19 09:24N 59°57' E 030°11'0 0.0
2018-May-19 09:00N 59°57' E 030°11'0 0.0
2018-May-19 08:27N 59°57' E 030°11'0 0.0
2018-May-19 07:57N 59°57' E 030°11'0 0.0
2018-May-19 07:30N 59°57' E 030°11'0 0.0
2018-May-19 07:00N 59°57' E 030°11'0 0.0
2018-May-19 06:30N 59°57' E 030°11'0 0.0
2018-May-19 06:00N 59°57' E 030°11'0 0.0
2018-May-19 05:30N 59°57' E 030°11'0 0.0
2018-May-19 05:00N 59°57' E 030°11'0 0.0
2018-May-19 04:27N 59°57' E 030°11'0 0.0
2018-May-19 04:00N 59°57' E 030°11'0 0.0
2018-May-19 03:30N 59°57' E 030°11'0 0.0
2018-May-19 03:00N 59°57' E 030°11'0 0.0
2018-May-19 02:18N 59°57' E 030°11'0 0.0
2018-May-19 02:00N 59°57' E 030°11'0 0.0
2018-May-19 01:30N 59°57' E 030°11'0 0.0
2018-May-19 01:00N 59°57' E 030°11'0 0.0
2018-May-19 00:30N 59°57' E 030°11'0 0.0
2018-May-19 00:00N 59°57' E 030°11'0 0.0
2018-May-18 23:30N 59°57' E 030°11'0 0.0
2018-May-18 23:00N 59°57' E 030°11'0 0.0
2018-May-18 22:30N 59°57' E 030°11'0 0.0
2018-May-18 22:00N 59°57' E 030°11'0 0.0
2018-May-18 21:30N 59°57' E 030°11'0 0.0
2018-May-18 21:00N 59°57' E 030°11'0 0.0
2018-May-18 20:30N 59°57' E 030°11'0 0.0
2018-May-18 20:00N 59°57' E 030°11'0 0.0
2018-May-18 19:30N 59°57' E 030°11'0 0.0
2018-May-18 19:00N 59°57' E 030°11'0 0.0
2018-May-18 18:30N 59°57' E 030°11'0 0.0
2018-May-18 18:00N 59°57' E 030°11'0 0.0
2018-May-18 17:30N 59°57' E 030°11'0 0.0
2018-May-18 17:00N 59°57' E 030°11'0 0.0
2018-May-18 16:30N 59°57' E 030°11'0 0.0
2018-May-18 16:00N 59°57' E 030°11'0 0.0
2018-May-18 15:30N 59°57' E 030°11'0 0.0
2018-May-18 15:00N 59°57' E 030°11'0 0.0
2018-May-18 14:30N 59°57' E 030°11'0 0.0
2018-May-18 14:00N 59°57' E 030°11'0 0.0
2018-May-18 13:30N 59°57' E 030°11'0 0.0
2018-May-18 13:00N 59°57' E 030°11'0 0.0
2018-May-18 12:30N 59°57' E 030°11'0 0.0
2018-May-18 12:00N 59°57' E 030°11'0 0.0
2018-May-18 11:30N 59°57' E 030°11'0 0.0
2018-May-18 11:00N 59°57' E 030°11'0 0.0
2018-May-18 10:30N 59°57' E 030°11'0 0.0
2018-May-18 10:00N 59°57' E 030°11'0 0.0
2018-May-18 09:30N 59°57' E 030°11'0 0.0
2018-May-18 09:00N 59°57' E 030°11'0 0.0
2018-May-18 08:30N 59°57' E 030°11'0 0.0
2018-May-18 07:54N 59°57' E 030°11'0 0.0
2018-May-18 07:30N 59°57' E 030°11'0 0.0
2018-May-18 07:00N 59°57' E 030°11'0 0.0
2018-May-18 06:30N 59°57' E 030°11'0 0.0
2018-May-18 06:00N 59°57' E 030°11'0 0.0
2018-May-18 05:27N 59°57' E 030°11'0 0.0
2018-May-18 05:00N 59°57' E 030°11'0 0.0
2018-May-18 04:30N 59°57' E 030°11'0 0.0
2018-May-18 04:00N 59°57' E 030°11'2 3.3
2018-May-18 03:30N 59°57' E 030°08'510.1
2018-May-18 03:00N 59°56' E 029°58'510.8
2018-May-18 02:30N 59°58' E 029°48'4 7.8
2018-May-18 02:00N 59°60' E 029°41'611.7
2018-May-18 01:30N 60°01' E 029°30'510.0
2018-May-18 01:00N 60°01' E 029°20'815.3
2018-May-18 00:31N 60°02' E 029°05'815.7
2018-May-18 00:00N 60°02' E 028°49'815.9
2018-May-17 23:30N 60°02' E 028°33'815.5
2018-May-17 23:00N 60°06' E 028°19'815.6
2018-May-17 22:30N 60°09' E 028°05'815.8
2018-May-17 22:00N 60°11' E 027°49'815.2
2018-May-17 21:30N 60°08' E 027°35'816.2
2018-May-17 20:59N 60°03' E 027°21'816.6
2018-May-17 20:29N 59°59' E 027°07'815.8
2018-May-17 20:00N 59°59' E 026°52'815.8
2018-May-17 19:30N 59°59' E 026°36'816.4
2018-May-17 19:00N 59°57' E 026°20'816.3
2018-May-17 18:30N 59°55' E 026°04'816.3
2018-May-17 18:00N 59°52' E 025°49'817.0
2018-May-17 17:30N 59°51' E 025°32'917.3
2018-May-17 17:00N 59°49' E 025°15'816.9
2018-May-17 16:30N 59°47' E 024°59'817.0
2018-May-17 16:00N 59°41' E 024°47'714.2
2018-May-17 15:30N 59°34' E 024°42'713.8
2018-May-17 15:00N 59°28' E 024°46'1 1.3
2018-May-17 14:26N 59°27' E 024°46'0 0.0
2018-May-17 13:59N 59°27' E 024°46'0 0.0
2018-May-17 13:29N 59°27' E 024°46'0 0.0
2018-May-17 12:59N 59°27' E 024°46'0 0.0
2018-May-17 12:29N 59°27' E 024°46'0 0.0
2018-May-17 11:58N 59°27' E 024°46'0 0.0
2018-May-17 11:29N 59°27' E 024°46'0 0.0
2018-May-17 11:00N 59°27' E 024°46'0 0.0
2018-May-17 10:29N 59°27' E 024°46'0 0.0
2018-May-17 09:59N 59°27' E 024°46'0 0.0
2018-May-17 09:29N 59°27' E 024°46'0 0.0
2018-May-17 09:00N 59°27' E 024°46'0 0.0
2018-May-17 08:29N 59°27' E 024°46'0 0.0
2018-May-17 07:56N 59°27' E 024°46'0 0.0
2018-May-17 07:29N 59°27' E 024°46'0 0.0
2018-May-17 06:59N 59°27' E 024°46'0 0.0
2018-May-17 06:29N 59°27' E 024°46'0 0.0
2018-May-17 05:59N 59°27' E 024°46'0 0.0
2018-May-17 05:29N 59°27' E 024°46'1 1.9
2018-May-17 05:00N 59°28' E 024°46'5 9.6
2018-May-17 04:30N 59°30' E 024°38'816.0
2018-May-17 04:01N 59°30' E 024°22'1020.1
2018-May-17 03:31N 59°29' E 024°02'1020.4
2018-May-17 03:01N 59°28' E 023°42'1020.3
2018-May-17 02:30N 59°27' E 023°22'1020.4
2018-May-17 02:01N 59°26' E 023°02'1020.3
2018-May-17 01:31N 59°26' E 022°42'712.7
2018-May-17 01:00N 59°24' E 022°30'4607.7 110 / 111012.527.0 14.012.211.0
2018-May-17 00:59N 59°23' E 022°22'1020.4
2018-May-17 00:31N 59°23' E 022°03'1020.1
2018-May-17 00:01N 59°24' E 021°44'1020.2
2018-May-16 23:31N 59°24' E 021°24'1019.9
2018-May-16 23:00N 59°24' E 021°04'1020.3
2018-May-16 22:30N 59°25' E 020°44'1120.3
2018-May-16 21:58N 59°25' E 020°22'918.9
2018-May-16 21:29N 59°28' E 020°05'919.5
2018-May-16 21:01N 59°36' E 019°59'1020.2
2018-May-16 20:30N 59°44' E 019°45'918.8
2018-May-16 20:01N 59°47' E 019°28'714.4
2018-May-16 19:31N 59°45' E 019°15'917.8
2018-May-16 19:00N 59°41' E 018°59'510.5
2018-May-16 18:30N 59°38' E 018°51'612.3
2018-May-16 18:00N 59°35' E 018°40'510.0
2018-May-16 17:30N 59°32' E 018°32'510.5
2018-May-16 17:00N 59°27' E 018°26'4 8.2
2018-May-16 16:30N 59°23' E 018°27'3 6.4
2018-May-16 16:00N 59°22' E 018°21'611.7
2018-May-16 15:30N 59°20' E 018°11'2 4.9
2018-May-16 15:00N 59°19' E 018°06'0 0.0
2018-May-16 14:28N 59°19' E 018°06'0 0.0
2018-May-16 13:58N 59°19' E 018°06'0 0.0
2018-May-16 13:28N 59°19' E 018°06'0 0.0
2018-May-16 12:58N 59°19' E 018°06'0 0.0
2018-May-16 12:28N 59°19' E 018°06'0 0.0
2018-May-16 11:58N 59°19' E 018°06'0 0.0
2018-May-16 11:28N 59°19' E 018°06'0 0.0
2018-May-16 10:58N 59°19' E 018°06'0 0.0
2018-May-16 10:28N 59°19' E 018°06'0 0.0
2018-May-16 09:58N 59°19' E 018°06'0 0.0
2018-May-16 09:28N 59°19' E 018°06'0 0.0
2018-May-16 08:58N 59°19' E 018°06'0 0.0
2018-May-16 08:28N 59°19' E 018°06'0 0.0
2018-May-16 07:58N 59°19' E 018°06'0 0.0
2018-May-16 07:25N 59°19' E 018°06'0 0.0
2018-May-16 07:00N 59°19' E 018°06'0 0.1
2018-May-16 06:30N 59°19' E 018°06'3 6.0
2018-May-16 06:00N 59°20' E 018°12'611.1
2018-May-16 05:30N 59°22' E 018°21'3 5.9
2018-May-16 05:00N 59°23' E 018°27'4 7.8
2018-May-16 04:30N 59°27' E 018°26'510.7
2018-May-16 04:00N 59°32' E 018°32'510.3
2018-May-16 03:30N 59°34' E 018°40'612.0
2018-May-16 03:00N 59°37' E 018°50'5 9.3
2018-May-16 02:30N 59°40' E 018°58'816.4
2018-May-16 02:00N 59°44' E 019°12'815.2
2018-May-16 01:30N 59°47' E 019°26'816.9
2018-May-16 01:00N 59°48' E 019°43'917.2
2018-May-16 00:30N 59°42' E 019°55'918.6
2018-May-16 00:00N 59°35' E 020°08'917.6
2018-May-15 23:28N 59°26' E 020°05'920.3
2018-May-15 23:00N 59°18' E 019°55'1020.5
2018-May-15 22:30N 59°09' E 019°45'1020.4
2018-May-15 22:00N 59°01' E 019°34'1020.7
2018-May-15 21:30N 58°52' E 019°24'1020.7
2018-May-15 21:00N 58°43' E 019°13'19319.9
2018-May-15 11:19N 55°54' E 016°22'620.0
2018-May-15 11:00N 55°51' E 016°13'1020.1
2018-May-15 10:30N 55°46' E 015°57'1020.0
2018-May-15 10:00N 55°41' E 015°42'1020.3
2018-May-15 09:30N 55°36' E 015°26'1020.5
2018-May-15 09:00N 55°32' E 015°10'1020.3
2018-May-15 08:30N 55°27' E 014°54'1020.5
2018-May-15 08:00N 55°22' E 014°38'1020.3
2018-May-15 07:30N 55°14' E 014°26'1020.0
2018-May-15 07:00N 55°07' E 014°15'1019.5
2018-May-15 06:30N 55°01' E 014°02'1020.3
2018-May-15 06:00N 54°57' E 013°45'1020.1
2018-May-15 05:30N 54°54' E 013°29'1020.1
2018-May-15 05:00N 54°50' E 013°13'1019.5
2018-May-15 04:30N 54°47' E 012°57'918.9
2018-May-15 04:00N 54°44' E 012°41'918.8
2018-May-15 03:30N 54°39' E 012°28'918.5
2018-May-15 03:01N 54°32' E 012°17'917.7
2018-May-15 02:30N 54°25' E 012°08'919.0
2018-May-15 02:00N 54°25' E 011°52'918.8
2018-May-15 01:30N 54°28' E 011°37'1019.4
2018-May-15 01:00N 54°32' E 011°22'919.0
2018-May-15 00:30N 54°36' E 011°07'918.5
2018-May-15 00:00N 54°41' E 010°53'713.8
2018-May-14 23:31N 54°48' E 010°52'816.6
2018-May-14 23:01N 54°56' E 010°55'917.9
2018-May-14 22:30N 55°04' E 011°02'714.1
2018-May-14 22:00N 55°11' E 011°03'5 9.6
2018-May-14 21:30N 55°15' E 011°05'714.0
2018-May-14 21:00N 55°22' E 011°02'3816.4
2018-May-14 18:41N 56°00' E 011°04'419.1
2018-May-14 18:28N 56°04' E 011°07'917.4
2018-May-14 17:57N 56°08' E 011°21'919.9
2018-May-14 17:29N 56°08' E 011°38'919.7
2018-May-14 17:01N 56°10' E 011°54'8467.5
2018-May-14 17:00N 56°06' E 011°42'1736.2 040 / 151019.210.8 19.013.815.0
2018-May-14 16:30N 56°12' E 012°11'918.5
2018-May-14 16:00N 56°09' E 012°27'919.0
2018-May-14 15:31N 56°03' E 012°39'815.9
2018-May-14 15:01N 55°55' E 012°39'816.2
2018-May-14 14:31N 55°47' E 012°43'510.8
2018-May-14 14:00N 55°43' E 012°37'0 0.1
2018-May-14 13:30N 55°43' E 012°37'0 0.0
2018-May-14 13:00N 55°43' E 012°37'0 0.0
2018-May-14 12:30N 55°43' E 012°37'0 0.0
2018-May-14 12:00N 55°43' E 012°37'0 0.0
2018-May-14 11:30N 55°43' E 012°37'0 0.0
2018-May-14 11:00N 55°43' E 012°37'0 0.0
2018-May-14 10:30N 55°43' E 012°37'0 0.0
2018-May-14 10:00N 55°43' E 012°37'0 0.0
2018-May-14 09:30N 55°43' E 012°37'0 0.0
2018-May-14 09:00N 55°43' E 012°37'0 0.0
2018-May-14 08:30N 55°43' E 012°37'0 0.0
2018-May-14 08:00N 55°43' E 012°37'0 0.0
2018-May-14 07:30N 55°43' E 012°37'0 0.0
2018-May-14 07:00N 55°43' E 012°37'0 0.0
2018-May-14 06:30N 55°43' E 012°37'0 0.0
2018-May-14 06:00N 55°43' E 012°37'0 0.0
2018-May-14 05:30N 55°43' E 012°37'0 0.0
2018-May-14 05:00N 55°43' E 012°37'0 0.7
2018-May-14 04:30N 55°43' E 012°38'4 9.0
2018-May-14 04:00N 55°47' E 012°41'714.8
2018-May-14 03:31N 55°54' E 012°39'816.0
2018-May-14 03:01N 56°02' E 012°39'914.4
2018-May-14 02:23N 56°08' E 012°27'613.8
2018-May-14 01:58N 56°12' E 012°19'3315.5
2018-May-13 23:50N 56°41' E 011°53'616.9
2018-May-13 23:30N 56°47' E 011°50'816.8
2018-May-13 23:00N 56°55' E 011°45'816.5
2018-May-13 22:30N 57°02' E 011°40'816.3
2018-May-13 22:00N 57°10' E 011°35'816.2
2018-May-13 21:30N 57°18' E 011°30'816.6
2018-May-13 21:00N 57°26' E 011°25'  

Dump ship's entire track history